createdAt,value
2019-03-17T00:00:38.042Z,14.59
2019-03-17T00:01:35.922Z,14.61
2019-03-17T00:02:36.050Z,14.66
2019-03-17T00:03:35.910Z,14.69
2019-03-17T00:04:35.924Z,14.60
2019-03-17T00:05:35.901Z,14.53
2019-03-17T00:06:35.929Z,14.59
2019-03-17T00:07:35.886Z,14.59
2019-03-17T00:08:35.936Z,14.60
2019-03-17T00:09:35.829Z,14.67
2019-03-17T00:10:35.846Z,14.63
2019-03-17T00:11:35.802Z,14.57
2019-03-17T00:12:35.882Z,14.60
2019-03-17T00:13:35.804Z,14.61
2019-03-17T00:14:35.874Z,14.69
2019-03-17T00:15:35.773Z,14.61
2019-03-17T00:16:35.791Z,14.60
2019-03-17T00:17:35.742Z,14.60
2019-03-17T00:18:35.867Z,14.67
2019-03-17T00:19:35.719Z,14.63
2019-03-17T00:21:36.877Z,14.57
2019-03-17T00:23:36.772Z,14.59
2019-03-17T00:24:35.763Z,14.64
2019-03-17T00:25:35.647Z,14.66
2019-03-17T00:27:36.795Z,14.67
2019-03-17T00:28:35.711Z,14.60
2019-03-17T00:29:35.668Z,14.57
2019-03-17T00:30:35.687Z,14.67
2019-03-17T00:31:35.579Z,14.63
2019-03-17T00:32:35.598Z,14.63
2019-03-17T00:33:36.575Z,14.67
2019-03-17T00:35:20.036Z,14.63
2019-03-17T00:35:36.698Z,14.59
2019-03-17T00:36:35.522Z,14.57
2019-03-17T00:37:35.535Z,14.57
2019-03-17T00:38:35.516Z,14.60
2019-03-17T00:39:35.542Z,14.63
2019-03-17T00:40:35.476Z,14.71
2019-03-17T00:41:35.566Z,14.60
2019-03-17T00:42:35.472Z,14.56
2019-03-17T00:43:35.538Z,14.59
2019-03-17T00:44:35.440Z,14.64
2019-03-17T00:46:36.622Z,14.59
2019-03-17T00:47:35.503Z,14.63
2019-03-17T00:48:35.417Z,14.63
2019-03-17T00:50:36.543Z,14.61
2019-03-17T00:51:35.434Z,14.66
2019-03-17T00:52:35.373Z,14.61
2019-03-17T00:53:35.375Z,14.66
2019-03-17T00:54:35.329Z,14.61
2019-03-17T00:55:35.355Z,14.61
2019-03-17T00:56:35.287Z,14.61
2019-03-17T00:57:35.373Z,14.63
2019-03-17T00:58:35.312Z,14.66
2019-03-17T00:59:35.285Z,14.57
2019-03-17T01:00:35.264Z,14.63
2019-03-17T01:02:36.393Z,14.63
2019-03-17T01:03:49.221Z,14.59
2019-03-17T01:04:36.221Z,14.59
2019-03-17T01:05:35.228Z,14.60
2019-03-17T01:06:35.189Z,14.61
2019-03-17T01:07:35.237Z,14.57
2019-03-17T01:08:35.158Z,14.63
2019-03-17T01:09:35.178Z,14.60
2019-03-17T01:10:35.157Z,14.64
2019-03-17T01:11:35.162Z,14.63
2019-03-17T01:12:35.109Z,14.61
2019-03-17T01:14:36.300Z,14.63
2019-03-17T01:16:35.249Z,14.59
2019-03-17T01:20:35.559Z,14.63
2019-03-17T01:21:16.466Z,14.60
2019-03-17T01:24:10.287Z,14.64
2019-03-17T01:24:36.315Z,14.63
2019-03-17T01:25:36.382Z,14.60
2019-03-17T01:26:36.302Z,14.61
2019-03-17T01:27:36.410Z,14.60
2019-03-17T01:28:36.287Z,14.57
2019-03-17T01:29:38.425Z,14.60
2019-03-17T01:30:36.273Z,14.63
2019-03-17T01:32:37.442Z,14.61
2019-03-17T01:33:36.339Z,14.69
2019-03-17T01:34:36.229Z,14.59
2019-03-17T01:35:36.253Z,14.63
2019-03-17T01:36:36.214Z,14.66
2019-03-17T01:37:36.268Z,14.67
2019-03-17T01:38:36.173Z,14.60
2019-03-17T01:39:38.257Z,14.64
2019-03-17T01:40:36.146Z,14.61
2019-03-17T01:41:36.191Z,14.64
2019-03-17T01:42:36.118Z,14.66
2019-03-17T01:43:36.200Z,14.67
2019-03-17T01:44:36.119Z,14.71
2019-03-17T01:45:36.121Z,14.64
2019-03-17T01:46:36.097Z,14.66
2019-03-17T01:47:36.142Z,14.60
2019-03-17T01:48:36.062Z,14.66
2019-03-17T01:49:38.129Z,14.60
2019-03-17T01:50:36.044Z,14.66
2019-03-17T01:52:37.206Z,14.60
2019-03-17T01:53:36.073Z,14.59
2019-03-17T01:54:36.005Z,14.59
2019-03-17T01:55:36.012Z,14.71
2019-03-17T01:56:35.968Z,14.61
2019-03-17T01:58:37.108Z,14.67
2019-03-17T01:59:36.017Z,14.61
2019-03-17T02:00:35.955Z,14.64
2019-03-17T02:01:36.037Z,14.59
2019-03-17T02:02:35.894Z,14.64
2019-03-17T02:04:37.061Z,14.52
2019-03-17T02:05:36.058Z,14.66
2019-03-17T02:06:36.104Z,14.66
2019-03-17T02:07:36.045Z,14.63
2019-03-17T02:08:36.007Z,14.63
2019-03-17T02:09:36.062Z,14.57
2019-03-17T02:10:35.843Z,14.57
2019-03-17T02:11:35.896Z,14.61
2019-03-17T02:12:35.798Z,14.59
2019-03-17T02:13:35.772Z,14.60
2019-03-17T02:15:36.943Z,14.56
2019-03-17T02:16:35.911Z,14.69
2019-03-17T02:17:35.718Z,14.67
2019-03-17T02:18:35.739Z,14.59
2019-03-17T02:19:35.698Z,14.59
2019-03-17T02:20:35.801Z,14.59
2019-03-17T02:21:35.682Z,14.59
2019-03-17T02:22:35.764Z,14.66
2019-03-17T02:23:35.649Z,14.67
2019-03-17T02:24:35.679Z,14.61
2019-03-17T02:25:35.670Z,14.60
2019-03-17T02:26:35.702Z,14.69
2019-03-17T02:27:35.621Z,14.56
2019-03-17T02:28:35.706Z,14.66
2019-03-17T02:29:35.595Z,14.63
2019-03-17T02:30:35.663Z,14.66
2019-03-17T02:31:35.578Z,14.56
2019-03-17T02:32:35.628Z,14.63
2019-03-17T02:33:35.583Z,14.61
2019-03-17T02:34:35.746Z,14.63
2019-03-17T02:35:39.451Z,14.64
2019-03-17T02:36:35.561Z,14.61
2019-03-17T02:37:35.503Z,14.53
2019-03-17T02:38:35.570Z,14.54
2019-03-17T02:39:35.474Z,14.53
2019-03-17T02:40:35.524Z,14.53
2019-03-17T02:41:35.459Z,14.61
2019-03-17T02:43:36.601Z,14.63
2019-03-17T02:44:35.512Z,14.67
2019-03-17T02:45:35.457Z,14.59
2019-03-17T02:46:35.424Z,14.57
2019-03-17T02:47:35.406Z,14.56
2019-03-17T02:48:35.467Z,14.61
2019-03-17T02:49:35.380Z,14.63
2019-03-17T02:50:36.422Z,14.64
2019-03-17T02:51:35.405Z,14.66
2019-03-17T02:53:36.557Z,14.66
2019-03-17T02:55:36.510Z,14.63
2019-03-17T02:57:36.308Z,14.60
2019-03-17T02:58:35.312Z,14.60
2019-03-17T02:59:35.266Z,14.64
2019-03-17T03:00:35.358Z,14.57
2019-03-17T03:01:35.257Z,14.57
2019-03-17T03:02:35.335Z,14.63
2019-03-17T03:03:35.222Z,14.57
2019-03-17T03:04:35.242Z,14.66
2019-03-17T03:05:35.211Z,14.63
2019-03-17T03:06:35.278Z,14.59
2019-03-17T03:07:35.160Z,14.57
2019-03-17T03:08:35.276Z,14.63
2019-03-17T03:09:35.154Z,14.67
2019-03-17T03:10:37.273Z,14.64
2019-03-17T03:11:35.141Z,14.63
2019-03-17T03:12:35.206Z,14.63
2019-03-17T03:13:35.109Z,14.66
2019-03-17T03:15:36.272Z,14.57
2019-03-17T03:16:35.136Z,14.54
2019-03-17T03:17:35.067Z,14.54
2019-03-17T03:18:35.045Z,14.52
2019-03-17T03:19:35.147Z,14.61
2019-03-17T03:20:35.048Z,14.59
2019-03-17T03:21:35.099Z,14.54
2019-03-17T03:22:34.992Z,14.53
2019-03-17T03:23:35.075Z,14.61
2019-03-17T03:24:34.974Z,14.53
2019-03-17T03:25:34.991Z,14.56
2019-03-17T03:26:34.975Z,14.53
2019-03-17T03:27:34.998Z,14.54
2019-03-17T03:28:34.937Z,14.56
2019-03-17T03:29:35.034Z,14.56
2019-03-17T03:30:34.911Z,14.53
2019-03-17T03:31:34.968Z,14.61
2019-03-17T03:32:34.889Z,14.57
2019-03-17T03:33:34.935Z,14.61
2019-03-17T03:34:34.869Z,14.57
2019-03-17T03:36:36.057Z,14.60
2019-03-17T03:37:34.859Z,14.48
2019-03-17T03:38:34.816Z,14.63
2019-03-17T03:39:34.886Z,14.61
2019-03-17T03:40:34.789Z,14.54
2019-03-17T03:41:37.900Z,14.60
2019-03-17T03:42:34.766Z,14.54
2019-03-17T03:44:35.940Z,14.63
2019-03-17T03:45:34.831Z,14.52
2019-03-17T03:46:34.755Z,14.60
2019-03-17T03:47:34.776Z,14.54
2019-03-17T03:48:34.714Z,14.61
2019-03-17T03:49:34.757Z,14.52
2019-03-17T03:50:34.676Z,14.59
2019-03-17T03:51:34.758Z,14.60
2019-03-17T03:52:34.695Z,14.63
2019-03-17T03:53:34.675Z,14.60
2019-03-17T03:54:34.645Z,14.48
2019-03-17T03:55:34.689Z,14.61
2019-03-17T03:56:34.640Z,14.60
2019-03-17T03:57:34.717Z,14.60
2019-03-17T03:58:34.600Z,14.53
2019-03-17T03:59:34.629Z,14.48
2019-03-17T04:00:34.568Z,14.46
2019-03-17T04:01:34.661Z,14.59
2019-03-17T04:02:34.565Z,14.60
2019-03-17T04:03:34.637Z,14.46
2019-03-17T04:04:34.531Z,14.60
2019-03-17T04:05:34.562Z,14.46
2019-03-17T04:06:34.556Z,14.52
2019-03-17T04:07:34.618Z,14.59
2019-03-17T04:08:34.478Z,14.54
2019-03-17T04:09:34.583Z,14.54
2019-03-17T04:10:34.471Z,14.54
2019-03-17T04:11:34.537Z,14.56
2019-03-17T04:12:34.477Z,14.52
2019-03-17T04:13:34.533Z,14.46
2019-03-17T04:14:34.419Z,14.54
2019-03-17T04:16:35.684Z,14.48
2019-03-17T04:17:34.466Z,14.52
2019-03-17T04:18:34.372Z,14.52
2019-03-17T04:20:35.530Z,14.52
2019-03-17T04:21:34.541Z,14.48
2019-03-17T04:22:35.592Z,14.48
2019-03-17T04:23:34.507Z,14.60
2019-03-17T04:24:34.556Z,14.46
2019-03-17T04:25:34.476Z,14.46
2019-03-17T04:26:34.397Z,14.44
2019-03-17T04:27:34.290Z,14.49
2019-03-17T04:28:34.292Z,14.52
2019-03-17T04:29:34.313Z,14.48
2019-03-17T04:30:34.232Z,14.48
2019-03-17T04:31:34.336Z,14.48
2019-03-17T04:32:34.234Z,14.48
2019-03-17T04:33:34.247Z,14.52
2019-03-17T04:34:34.215Z,14.45
2019-03-17T04:35:34.258Z,14.48
2019-03-17T04:36:40.271Z,14.48
2019-03-17T04:37:36.251Z,14.45
2019-03-17T04:38:34.148Z,14.46
2019-03-17T04:39:36.228Z,14.53
2019-03-17T04:40:34.115Z,14.48
2019-03-17T04:41:34.221Z,14.48
2019-03-17T04:42:34.121Z,14.49
2019-03-17T04:43:34.097Z,14.53
2019-03-17T04:44:34.082Z,14.52
2019-03-17T04:45:34.120Z,14.52
2019-03-17T04:46:34.071Z,14.48
2019-03-17T04:47:34.168Z,14.49
2019-03-17T04:48:34.043Z,14.46
2019-03-17T04:49:34.043Z,14.52
2019-03-17T04:50:34.034Z,14.49
2019-03-17T04:51:34.064Z,14.49
2019-03-17T04:52:34.027Z,14.52
2019-03-17T04:53:34.072Z,14.46
2019-03-17T04:54:33.962Z,14.45
2019-03-17T04:55:33.987Z,14.45
2019-03-17T04:56:33.949Z,14.49
2019-03-17T04:57:34.059Z,14.52
2019-03-17T04:58:33.917Z,14.48
2019-03-17T04:59:34.018Z,14.49
2019-03-17T05:00:33.922Z,14.52
2019-03-17T05:01:33.921Z,14.46
2019-03-17T05:02:33.922Z,14.42
2019-03-17T05:04:37.389Z,14.49
2019-03-17T05:05:33.949Z,14.45
2019-03-17T05:06:33.844Z,14.52
2019-03-17T05:07:33.813Z,14.45
2019-03-17T05:08:33.907Z,14.54
2019-03-17T05:09:33.799Z,14.48
2019-03-17T05:10:33.898Z,14.46
2019-03-17T05:11:33.775Z,14.48
2019-03-17T05:12:33.850Z,14.48
2019-03-17T05:13:33.782Z,14.56
2019-03-17T05:14:35.762Z,14.52
2019-03-17T05:15:33.717Z,14.49
2019-03-17T05:17:34.865Z,14.52
2019-03-17T05:18:34.795Z,14.48
2019-03-17T05:19:33.689Z,14.48
2019-03-17T05:20:37.750Z,14.45
2019-03-17T05:21:33.659Z,14.48
2019-03-17T05:22:35.733Z,14.48
2019-03-17T05:23:33.668Z,14.52
2019-03-17T05:24:33.694Z,14.48
2019-03-17T05:25:33.622Z,14.49
2019-03-17T05:26:33.703Z,14.46
2019-03-17T05:27:33.597Z,14.52
2019-03-17T05:28:33.695Z,14.49
2019-03-17T05:29:33.568Z,14.49
2019-03-17T05:31:34.728Z,14.45
2019-03-17T05:32:33.633Z,14.49
2019-03-17T05:33:33.562Z,14.45
2019-03-17T05:34:33.553Z,14.46
2019-03-17T05:35:33.507Z,14.48
2019-03-17T05:36:33.574Z,14.49
2019-03-17T05:37:33.487Z,14.48
2019-03-17T05:38:33.508Z,14.52
2019-03-17T05:39:33.470Z,14.48
2019-03-17T05:40:33.488Z,14.45
2019-03-17T05:41:33.443Z,14.48
2019-03-17T05:43:34.707Z,14.48
2019-03-17T05:44:33.517Z,14.49
2019-03-17T05:45:33.396Z,14.46
2019-03-17T05:46:33.429Z,14.48
2019-03-17T05:47:33.376Z,14.46
2019-03-17T05:48:33.479Z,14.49
2019-03-17T05:49:33.368Z,14.46
2019-03-17T05:50:33.365Z,14.52
2019-03-17T05:51:33.355Z,14.54
2019-03-17T05:52:33.366Z,14.59
2019-03-17T05:53:33.310Z,14.53
2019-03-17T05:55:34.346Z,14.54
2019-03-17T05:56:37.399Z,14.61
2019-03-17T05:57:33.274Z,14.48
2019-03-17T05:58:33.312Z,14.53
2019-03-17T05:59:33.267Z,14.59
2019-03-17T06:01:34.387Z,14.46
2019-03-17T06:02:33.241Z,14.57
2019-03-17T06:03:33.185Z,14.61
2019-03-17T06:04:33.288Z,14.53
2019-03-17T06:05:33.178Z,14.53
2019-03-17T06:07:38.827Z,14.59
2019-03-17T06:08:33.757Z,14.57
2019-03-17T06:09:33.166Z,14.63
2019-03-17T06:10:33.191Z,14.67
2019-03-17T06:11:33.107Z,14.67
2019-03-17T06:13:34.263Z,14.57
2019-03-17T06:15:34.338Z,14.59
2019-03-17T06:16:33.063Z,14.59
2019-03-17T06:17:33.135Z,14.66
2019-03-17T06:18:33.043Z,14.64
2019-03-17T06:19:33.095Z,14.74
2019-03-17T06:20:33.006Z,14.57
2019-03-17T06:22:34.195Z,14.71
2019-03-17T06:23:33.065Z,14.63
2019-03-17T06:24:32.977Z,14.66
2019-03-17T06:25:35.042Z,14.71
2019-03-17T06:26:32.936Z,14.71
2019-03-17T06:27:38.033Z,14.79
2019-03-17T06:28:32.925Z,14.71
2019-03-17T06:29:38.483Z,14.71
2019-03-17T06:30:32.909Z,14.74
2019-03-17T06:32:31.346Z,14.64
2019-03-17T06:32:33.929Z,14.75
2019-03-17T06:34:34.051Z,14.67
2019-03-17T06:35:32.860Z,14.75
2019-03-17T06:36:32.829Z,14.71
2019-03-17T06:37:32.875Z,14.71
2019-03-17T06:38:32.809Z,14.74
2019-03-17T06:39:32.915Z,14.69
2019-03-17T06:40:32.775Z,14.71
2019-03-17T06:41:32.802Z,14.80
2019-03-17T06:42:32.771Z,14.71
2019-03-17T06:43:32.802Z,14.72
2019-03-17T06:44:32.755Z,14.74
2019-03-17T06:45:32.819Z,14.74
2019-03-17T06:46:32.720Z,14.82
2019-03-17T06:47:32.734Z,14.83
2019-03-17T06:48:32.696Z,14.83
2019-03-17T06:49:32.795Z,14.83
2019-03-17T06:50:32.661Z,14.82
2019-03-17T06:51:32.770Z,14.80
2019-03-17T06:52:32.635Z,14.86
2019-03-17T06:53:32.680Z,14.78
2019-03-17T06:54:32.677Z,14.82
2019-03-17T06:55:32.705Z,14.86
2019-03-17T06:56:32.595Z,14.79
2019-03-17T06:57:32.704Z,14.80
2019-03-17T06:58:32.575Z,14.82
2019-03-17T06:59:33.684Z,14.90
2019-03-17T07:00:32.557Z,14.82
2019-03-17T07:01:32.642Z,14.91
2019-03-17T07:02:32.555Z,14.91
2019-03-17T07:03:32.545Z,14.83
2019-03-17T07:04:32.550Z,14.86
2019-03-17T07:05:32.563Z,14.90
2019-03-17T07:06:32.502Z,15.00
2019-03-17T07:07:43.371Z,14.91
2019-03-17T07:08:33.464Z,14.97
2019-03-17T07:09:32.528Z,15.01
2019-03-17T07:10:32.441Z,14.91
2019-03-17T07:11:32.511Z,14.93
2019-03-17T07:12:32.430Z,15.00
2019-03-17T07:13:32.506Z,15.05
2019-03-17T07:14:32.489Z,15.07
2019-03-17T07:15:32.435Z,15.01
2019-03-17T07:16:32.372Z,15.05
2019-03-17T07:18:33.565Z,15.00
2019-03-17T07:19:32.451Z,15.03
2019-03-17T07:20:32.344Z,15.00
2019-03-17T07:21:32.364Z,15.01
2019-03-17T07:22:32.340Z,15.03
2019-03-17T07:23:34.302Z,15.00
2019-03-17T07:24:32.287Z,15.00
2019-03-17T07:25:33.354Z,15.01
2019-03-17T07:26:32.257Z,15.09
2019-03-17T07:27:32.308Z,14.94
2019-03-17T07:28:32.236Z,14.97
2019-03-17T07:30:33.437Z,15.03
2019-03-17T07:31:32.338Z,14.98
2019-03-17T07:32:32.198Z,14.98
2019-03-17T07:33:32.257Z,15.01
2019-03-17T07:34:32.202Z,15.09
2019-03-17T07:35:32.304Z,15.01
2019-03-17T07:36:32.145Z,15.04
2019-03-17T07:37:32.178Z,15.09
2019-03-17T07:38:32.131Z,14.97
2019-03-17T07:39:32.195Z,14.93
2019-03-17T07:40:32.149Z,14.97
2019-03-17T07:41:32.204Z,15.05
2019-03-17T07:42:32.672Z,15.05
2019-03-17T07:43:32.119Z,15.07
2019-03-17T07:44:32.081Z,15.01
2019-03-17T07:45:32.187Z,15.03
2019-03-17T07:46:32.037Z,15.05
2019-03-17T07:48:33.188Z,15.07
2019-03-17T07:49:32.051Z,15.13
2019-03-17T07:50:32.025Z,15.11
2019-03-17T07:51:32.085Z,15.03
2019-03-17T07:52:31.965Z,15.07
2019-03-17T07:53:32.005Z,15.07
2019-03-17T07:54:34.855Z,15.09
2019-03-17T07:56:36.356Z,15.22
2019-03-17T07:57:31.922Z,15.23
2019-03-17T07:58:32.013Z,15.22
2019-03-17T07:59:31.907Z,15.20
2019-03-17T08:00:33.008Z,15.18
2019-03-17T08:01:31.875Z,15.23
2019-03-17T08:02:31.938Z,15.28
2019-03-17T08:03:31.880Z,15.30
2019-03-17T08:04:42.101Z,15.40
2019-03-17T08:05:32.962Z,15.35
2019-03-17T08:07:32.998Z,15.34
2019-03-17T08:08:31.936Z,15.38
2019-03-17T08:09:31.786Z,15.37
2019-03-17T08:10:32.891Z,15.37
2019-03-17T08:11:31.767Z,15.37
2019-03-17T08:12:31.838Z,15.43
2019-03-17T08:13:31.742Z,15.40
2019-03-17T08:14:31.914Z,15.49
2019-03-17T08:15:31.789Z,15.43
2019-03-17T08:16:31.809Z,15.56
2019-03-17T08:17:31.720Z,15.49
2019-03-17T08:18:31.836Z,15.55
2019-03-17T08:19:31.664Z,15.49
2019-03-17T08:20:31.809Z,15.52
2019-03-17T08:21:31.665Z,15.52
2019-03-17T08:22:31.809Z,15.60
2019-03-17T08:23:31.634Z,15.59
2019-03-17T08:24:31.753Z,15.66
2019-03-17T08:25:31.788Z,15.58
2019-03-17T08:26:31.821Z,15.60
2019-03-17T08:27:31.834Z,15.66
2019-03-17T08:28:31.710Z,15.60
2019-03-17T08:29:31.563Z,15.60
2019-03-17T08:30:31.669Z,15.64
2019-03-17T08:31:31.553Z,15.73
2019-03-17T08:32:41.248Z,15.76
2019-03-17T08:33:32.515Z,15.64
2019-03-17T08:34:31.614Z,15.66
2019-03-17T08:35:31.492Z,15.68
2019-03-17T08:36:31.699Z,15.73
2019-03-17T08:37:31.615Z,15.84
2019-03-17T08:38:31.525Z,15.78
2019-03-17T08:39:31.445Z,15.85
2019-03-17T08:40:31.596Z,15.89
2019-03-17T08:41:31.434Z,15.93
2019-03-17T08:42:31.554Z,15.92
2019-03-17T08:43:31.402Z,15.98
2019-03-17T08:45:32.592Z,15.95
2019-03-17T08:46:34.608Z,16.03
2019-03-17T08:47:31.372Z,15.99
2019-03-17T08:49:32.496Z,16.10
2019-03-17T08:50:31.437Z,16.08
2019-03-17T08:51:31.402Z,16.13
2019-03-17T08:52:34.148Z,16.22
2019-03-17T08:53:31.313Z,16.16
2019-03-17T08:54:31.484Z,16.14
2019-03-17T08:55:31.281Z,16.17
2019-03-17T08:56:31.366Z,16.18
2019-03-17T08:57:31.250Z,16.26
2019-03-17T08:58:31.432Z,16.18
2019-03-17T08:59:31.219Z,16.27
2019-03-17T09:00:31.286Z,16.23
2019-03-17T09:01:31.232Z,16.26
2019-03-17T09:02:31.341Z,16.26
2019-03-17T09:03:31.194Z,16.22
2019-03-17T09:04:31.310Z,16.34
2019-03-17T09:05:31.167Z,16.27
2019-03-17T09:06:32.266Z,16.32
2019-03-17T09:07:31.150Z,16.26
2019-03-17T09:08:51.389Z,16.34
2019-03-17T09:09:32.150Z,16.33
2019-03-17T09:11:25.389Z,16.33
2019-03-17T09:11:32.112Z,16.36
2019-03-17T09:12:31.219Z,16.34
2019-03-17T09:13:31.076Z,16.32
2019-03-17T09:14:31.153Z,16.40
2019-03-17T09:15:31.032Z,16.36
2019-03-17T09:16:31.239Z,16.32
2019-03-17T09:17:31.022Z,16.36
2019-03-17T09:18:31.115Z,16.37
2019-03-17T09:19:30.985Z,16.37
2019-03-17T09:20:31.175Z,16.41
2019-03-17T09:21:30.986Z,16.50
2019-03-17T09:22:39.151Z,16.37
2019-03-17T09:23:30.936Z,16.42
2019-03-17T09:24:31.110Z,16.42
2019-03-17T09:25:30.937Z,16.48
2019-03-17T09:27:32.095Z,16.45
2019-03-17T09:28:48.893Z,16.45
2019-03-17T09:29:31.991Z,16.51
2019-03-17T09:30:30.925Z,16.51
2019-03-17T09:32:14.708Z,16.47
2019-03-17T09:32:31.943Z,16.47
2019-03-17T09:33:30.847Z,16.55
2019-03-17T09:35:47.282Z,16.60
2019-03-17T09:36:46.939Z,16.57
2019-03-17T09:37:47.943Z,16.63
2019-03-17T09:38:47.510Z,16.63
2019-03-17T09:39:46.158Z,16.55
2019-03-17T09:40:46.031Z,16.59
2019-03-17T09:42:47.402Z,16.62
2019-03-17T09:43:46.139Z,16.63
2019-03-17T09:44:46.048Z,16.67
2019-03-17T09:56:27.365Z,16.72
2019-03-17T09:58:27.445Z,16.84
2019-03-17T09:59:25.369Z,16.87
2019-03-17T10:00:25.481Z,16.91
2019-03-17T10:01:25.350Z,16.87
2019-03-17T10:02:25.424Z,16.80
2019-03-17T10:03:25.341Z,16.87
2019-03-17T10:05:26.374Z,16.85
2019-03-17T10:06:46.268Z,16.82
2019-03-17T10:07:25.147Z,16.90
2019-03-17T10:08:25.182Z,16.85
2019-03-17T10:09:25.360Z,16.92
2019-03-17T10:10:25.273Z,16.87
2019-03-17T10:11:25.084Z,16.88
2019-03-17T10:12:25.159Z,16.95
2019-03-17T10:13:25.068Z,16.85
2019-03-17T10:14:25.191Z,16.90
2019-03-17T10:15:25.016Z,16.98
2019-03-17T10:16:25.160Z,16.99
2019-03-17T10:17:25.047Z,16.92
2019-03-17T10:18:29.028Z,16.87
2019-03-17T10:19:24.982Z,16.90
2019-03-17T10:21:26.140Z,16.90
2019-03-17T10:22:25.020Z,16.92
2019-03-17T10:23:24.976Z,16.87
2019-03-17T10:24:25.047Z,16.87
2019-03-17T10:25:24.911Z,16.84
2019-03-17T10:26:25.009Z,16.85
2019-03-17T10:27:24.910Z,16.85
2019-03-17T10:28:24.975Z,16.78
2019-03-17T10:29:24.906Z,16.87
2019-03-17T10:31:26.082Z,16.84
2019-03-17T10:32:26.183Z,16.90
2019-03-17T10:33:24.817Z,16.88
2019-03-17T10:34:24.902Z,16.91
2019-03-17T10:35:24.800Z,16.85
2019-03-17T10:36:29.042Z,16.77
2019-03-17T10:37:24.798Z,16.90
2019-03-17T10:38:28.161Z,16.90
2019-03-17T10:39:24.750Z,16.82
2019-03-17T10:41:25.894Z,16.85
2019-03-17T10:42:24.889Z,16.81
2019-03-17T10:43:24.714Z,16.81
2019-03-17T10:45:25.847Z,16.91
2019-03-17T10:46:24.795Z,16.95
2019-03-17T10:47:24.690Z,16.88
2019-03-17T10:48:24.744Z,16.96
2019-03-17T10:49:24.711Z,16.92
2019-03-17T10:50:50.807Z,16.98
2019-03-17T10:51:24.746Z,16.91
2019-03-17T10:52:24.797Z,16.98
2019-03-17T10:53:24.754Z,16.98
2019-03-17T10:54:24.720Z,16.98
2019-03-17T11:00:50.846Z,16.99
2019-03-17T11:01:50.785Z,16.91
2019-03-17T11:02:50.904Z,16.96
2019-03-17T11:03:51.271Z,16.96
2019-03-17T11:04:51.795Z,16.95
2019-03-17T11:05:50.760Z,17.02
2019-03-17T11:06:50.778Z,16.90
2019-03-17T11:07:50.736Z,17.05
2019-03-17T11:08:50.779Z,17.03
2019-03-17T11:09:50.726Z,17.10
2019-03-17T11:10:50.738Z,17.03
2019-03-17T11:11:50.690Z,17.05
2019-03-17T11:13:51.819Z,17.06
2019-03-17T11:15:51.832Z,17.03
2019-03-17T11:16:50.628Z,17.07
2019-03-17T11:17:50.628Z,17.02
2019-03-17T11:19:00.467Z,17.14
2019-03-17T11:19:50.797Z,17.14
2019-03-17T11:21:51.798Z,17.24
2019-03-17T11:23:51.705Z,17.30
2019-03-17T11:24:50.572Z,17.30
2019-03-17T11:25:50.500Z,17.28
2019-03-17T11:27:51.678Z,17.22
2019-03-17T11:29:11.560Z,17.22
2019-03-17T11:29:50.550Z,17.33
2019-03-17T11:30:50.478Z,17.30
2019-03-17T11:31:50.540Z,17.33
2019-03-17T11:32:50.424Z,17.28
2019-03-17T11:33:51.512Z,17.28
2019-03-17T11:34:50.418Z,17.38
2019-03-17T11:35:54.957Z,17.33
2019-03-17T11:36:50.388Z,17.35
2019-03-17T11:38:51.537Z,17.38
2019-03-17T11:39:59.757Z,17.33
2019-03-17T11:40:50.344Z,17.35
2019-03-17T11:42:51.505Z,17.35
2019-03-17T11:44:11.456Z,17.35
2019-03-17T11:45:53.328Z,17.36
2019-03-17T11:46:50.288Z,17.36
2019-03-17T11:48:51.548Z,17.35
2019-03-17T11:50:06.748Z,17.33
2019-03-17T11:55:38.692Z,17.20
2019-03-17T11:57:02.683Z,17.24
2019-03-17T11:57:30.034Z,17.18
2019-03-17T11:58:28.934Z,17.14
2019-03-17T11:59:28.901Z,17.05
2019-03-17T12:01:52.240Z,16.91
2019-03-17T12:02:54.212Z,17.03
2019-03-17T12:03:52.972Z,16.95
2019-03-17T12:04:52.358Z,16.96
2019-03-17T12:06:13.309Z,16.90
2019-03-17T12:06:52.111Z,16.87
2019-03-17T12:39:33.056Z,16.84
2019-03-17T12:40:31.614Z,16.73
2019-03-17T12:41:31.473Z,16.72
2019-03-17T12:42:32.380Z,16.72
2019-03-17T12:43:31.540Z,16.72
2019-03-17T12:44:31.538Z,16.72
2019-03-17T12:45:31.417Z,16.75
2019-03-17T12:46:31.515Z,16.75
2019-03-17T12:47:31.378Z,16.75
2019-03-17T12:49:32.574Z,16.62
2019-03-17T12:50:31.432Z,16.62
2019-03-17T12:51:31.328Z,16.60
2019-03-17T12:52:31.468Z,16.52
2019-03-17T12:53:31.339Z,16.51
2019-03-17T12:54:31.350Z,16.55
2019-03-17T12:55:31.338Z,16.59
2019-03-17T12:56:31.371Z,16.52
2019-03-17T12:57:31.301Z,16.47
2019-03-17T12:58:31.300Z,16.48
2019-03-17T12:59:31.244Z,16.34
2019-03-17T13:00:31.335Z,16.33
2019-03-17T13:01:31.313Z,16.37
2019-03-17T13:02:31.508Z,16.30
2019-03-17T13:03:31.292Z,16.25
2019-03-17T13:05:32.412Z,16.23
2019-03-17T13:06:31.256Z,16.23
2019-03-17T13:07:31.162Z,16.13
2019-03-17T13:09:32.334Z,16.04
2019-03-17T13:10:31.194Z,16.10
2019-03-17T13:11:31.102Z,15.95
2019-03-17T13:12:31.197Z,15.95
2019-03-17T13:13:31.098Z,15.96
2019-03-17T13:14:33.216Z,15.91
2019-03-17T13:15:31.110Z,15.81
2019-03-17T13:17:32.278Z,15.70
2019-03-17T13:18:31.136Z,15.73
2019-03-17T13:19:31.033Z,15.77
2019-03-17T13:21:37.129Z,15.58
2019-03-17T13:22:30.981Z,15.67
2019-03-17T13:23:31.060Z,15.64
2019-03-17T13:24:31.078Z,15.62
2019-03-17T13:25:31.188Z,15.60
2019-03-17T13:26:31.098Z,15.58
2019-03-17T13:27:30.987Z,15.62
2019-03-17T13:29:32.138Z,15.52
2019-03-17T13:30:31.130Z,15.56
2019-03-17T13:31:31.033Z,15.49
2019-03-17T13:32:31.050Z,15.46
2019-03-17T13:33:31.040Z,15.49
2019-03-17T13:34:31.018Z,15.44
2019-03-17T13:35:30.848Z,15.40
2019-03-17T13:36:30.862Z,15.40
2019-03-17T13:37:30.849Z,15.33
2019-03-17T13:38:30.802Z,15.34
2019-03-17T13:39:30.872Z,15.31
2019-03-17T13:40:30.799Z,15.34
2019-03-17T13:41:31.390Z,15.35
2019-03-17T13:42:33.761Z,15.34
2019-03-17T13:43:30.786Z,15.25
2019-03-17T13:44:30.718Z,15.25
2019-03-17T13:47:03.494Z,15.22
2019-03-17T13:48:02.464Z,15.23
2019-03-17T13:49:04.514Z,15.18
2019-03-17T13:50:02.388Z,15.16
2019-03-17T14:01:20.545Z,15.19
2019-03-17T14:02:20.575Z,15.25
2019-03-17T14:03:20.428Z,15.30
2019-03-17T14:04:20.490Z,15.15
2019-03-17T14:05:20.443Z,15.27
2019-03-17T14:06:20.468Z,15.25
2019-03-17T14:07:20.404Z,15.23
2019-03-17T14:08:20.406Z,15.28
2019-03-17T14:09:20.365Z,15.34
2019-03-17T14:10:22.376Z,15.33
2019-03-17T14:21:01.722Z,15.27
2019-03-17T14:22:00.888Z,15.30
2019-03-17T14:23:00.943Z,15.30
2019-03-17T14:24:00.885Z,15.34
2019-03-17T14:25:00.979Z,15.23
2019-03-17T14:26:00.888Z,15.25
2019-03-17T14:27:00.931Z,15.30
2019-03-17T14:28:00.881Z,15.23
2019-03-17T14:29:00.918Z,15.19
2019-03-17T14:30:00.822Z,15.23
2019-03-17T14:31:00.868Z,15.23
2019-03-17T14:32:00.848Z,15.20
2019-03-17T14:33:00.829Z,15.27
2019-03-17T14:34:00.787Z,15.23
2019-03-17T14:35:00.851Z,15.23
2019-03-17T14:36:00.795Z,15.22
2019-03-17T14:37:00.775Z,15.23
2019-03-17T14:38:00.739Z,15.18
2019-03-17T14:39:00.779Z,15.13
2019-03-17T14:40:00.702Z,15.18
2019-03-17T14:41:01.846Z,15.15
2019-03-17T14:42:00.692Z,15.13
2019-03-17T14:43:00.716Z,15.07
2019-03-17T14:44:00.659Z,15.15
2019-03-17T14:45:00.698Z,15.13
2019-03-17T14:46:00.672Z,15.07
2019-03-17T14:47:00.739Z,15.13
2019-03-17T14:48:00.640Z,15.07
2019-03-17T14:49:00.645Z,15.07
2019-03-17T14:50:00.596Z,15.00
2019-03-17T14:51:00.617Z,15.04
2019-03-17T14:52:00.567Z,15.09
2019-03-17T14:53:00.928Z,15.07
2019-03-17T14:54:00.547Z,15.05
2019-03-17T14:55:00.606Z,15.04
2019-03-17T14:56:00.546Z,15.09
2019-03-17T14:57:00.619Z,15.12
2019-03-17T14:58:00.511Z,15.09
2019-03-17T14:59:00.498Z,15.07
2019-03-17T15:00:00.481Z,15.03
2019-03-17T15:01:00.559Z,15.09
2019-03-17T15:02:00.462Z,15.15
2019-03-17T15:03:00.533Z,15.11
2019-03-17T15:04:00.434Z,15.04
2019-03-17T15:05:02.498Z,15.04
2019-03-17T15:06:00.414Z,15.11
2019-03-17T15:07:00.447Z,15.13
2019-03-17T15:08:00.389Z,15.05
2019-03-17T15:09:00.473Z,15.07
2019-03-17T15:10:00.384Z,15.15
2019-03-17T15:11:05.667Z,15.20
2019-03-17T15:12:01.384Z,15.22
2019-03-17T15:13:00.402Z,15.20
2019-03-17T15:14:00.320Z,15.20
2019-03-17T15:15:02.369Z,15.25
2019-03-17T15:16:02.966Z,15.28